Time;durP1;ratioP1;P1;durP2;ratioP2;P2;SDS_P1;SDS_P2;PMS_P1;PMS_P2;Temp;Humidity;BMP_temperature;BMP_pressure;BME280_temperature;BME280_humidity;BME280_pressure;Samples;Min_cycle;Max_cycle;Signal;HPM_P1;HPM_P2
2024/01/17 00:00:04;;;;;;;14.57;10.00;;;;;;;;;;2613859;54;20378;-79
2024/01/17 00:05:34;;;;;;;11.90;8.90;;;;;;;;;;2612558;54;20474;-79
2024/01/17 00:11:04;;;;;;;14.47;9.37;;;;;;;;;;2614255;54;20354;-79
2024/01/17 00:16:34;;;;;;;10.93;9.20;;;;;;;;;;2614422;54;20363;-80
2024/01/17 00:22:04;;;;;;;13.90;10.70;;;;;;;;;;2613231;54;20419;-76
2024/01/17 00:27:33;;;;;;;12.57;10.50;;;;;;;;;;2613690;54;20409;-76
2024/01/17 00:33:03;;;;;;;11.03;8.30;;;;;;;;;;2614304;54;20374;-79
2024/01/17 00:38:32;;;;;;;13.90;9.17;;;;;;;;;;2614098;54;20390;-80
2024/01/17 00:44:04;;;;;;;10.30;9.00;;;;;;;;;;2612801;54;20379;-76
2024/01/17 00:49:34;;;;;;;14.90;9.50;;;;;;;;;;2613496;54;20383;-77
2024/01/17 00:55:04;;;;;;;11.50;8.37;;;;;;;;;;2613022;54;20403;-80
2024/01/17 01:00:33;;;;;;;11.13;8.87;;;;;;;;;;2614191;39;20755;-79
2024/01/17 01:15:30;;;;;;;13.93;8.23;;;;;;;;;;2612470;54;20378;-79
2024/01/17 01:20:59;;;;;;;11.77;9.53;;;;;;;;;;2611853;54;20476;-80
2024/01/17 01:26:28;;;;;;;16.30;9.83;;;;;;;;;;2611654;54;20366;-78
2024/01/17 01:31:57;;;;;;;10.20;8.93;;;;;;;;;;2611991;54;20397;-78
2024/01/17 01:37:27;;;;;;;14.10;9.00;;;;;;;;;;2612121;54;20404;-79
2024/01/17 01:42:58;;;;;;;18.33;8.43;;;;;;;;;;2613094;54;20404;-77
2024/01/17 01:48:28;;;;;;;11.80;9.03;;;;;;;;;;2613725;54;20538;-78
2024/01/17 01:53:59;;;;;;;9.80;8.23;;;;;;;;;;2613427;54;20341;-78
2024/01/17 01:59:29;;;;;;;14.40;10.80;;;;;;;;;;2614921;54;20366;-80
2024/01/17 02:05:00;;;;;;;9.87;8.13;;;;;;;;;;2615563;54;20366;-78
2024/01/17 02:10:30;;;;;;;12.13;9.10;;;;;;;;;;2615793;54;20928;-78
2024/01/17 02:16:00;;;;;;;15.57;8.13;;;;;;;;;;2615882;54;20410;-78
2024/01/17 02:21:30;;;;;;;9.00;8.00;;;;;;;;;;2615961;39;20783;-78
2024/01/17 02:27:01;;;;;;;9.53;8.50;;;;;;;;;;2614690;54;20371;-78
2024/01/17 02:32:30;;;;;;;8.90;8.00;;;;;;;;;;2614561;54;20400;-79
2024/01/17 02:38:00;;;;;;;14.93;8.70;;;;;;;;;;2614190;54;20326;-78
2024/01/17 02:43:29;;;;;;;16.63;8.30;;;;;;;;;;2614369;54;20402;-78
2024/01/17 02:48:59;;;;;;;10.13;7.50;;;;;;;;;;2613989;54;20414;-77
2024/01/17 02:54:29;;;;;;;10.30;7.13;;;;;;;;;;2613718;54;20453;-77
2024/01/17 02:57:14;;;;;;;12.13;7.37;;;;;;;;;;2613747;47;20404;-77
2024/01/17 02:59:41;;;;;;;13.40;7.67;;;;;;;;;;2613919;39;20881;-77
2024/01/17 03:05:11;;;;;;;16.03;10.50;;;;;;;;;;2614826;54;20345;-77
2024/01/17 03:10:41;;;;;;;9.03;8.20;;;;;;;;;;2615350;54;20378;-78
2024/01/17 03:16:13;;;;;;;9.67;7.20;;;;;;;;;;2615394;54;20362;-79
2024/01/17 03:21:49;;;;;;;17.20;9.60;;;;;;;;;;2614821;54;20478;-78
2024/01/17 03:27:18;;;;;;;11.27;9.00;;;;;;;;;;2614217;54;20366;-78
2024/01/17 03:32:48;;;;;;;11.67;7.67;;;;;;;;;;2614833;54;20495;-78
2024/01/17 03:38:18;;;;;;;9.80;8.77;;;;;;;;;;2614373;54;20438;-78
2024/01/17 03:43:48;;;;;;;16.30;9.30;;;;;;;;;;2614229;54;20476;-79
2024/01/17 03:49:18;;;;;;;12.60;9.53;;;;;;;;;;2614224;54;20402;-82
2024/01/17 03:54:47;;;;;;;16.20;10.53;;;;;;;;;;2614254;54;20374;-78
2024/01/17 04:00:17;;;;;;;9.53;8.53;;;;;;;;;;2614073;54;20379;-79
2024/01/17 04:11:54;;;;;;;13.00;8.73;;;;;;;;;;2615915;54;20358;-78
2024/01/17 04:17:24;;;;;;;10.90;9.80;;;;;;;;;;2614612;54;20492;-81
2024/01/17 04:22:54;;;;;;;12.60;9.50;;;;;;;;;;2613483;54;20334;-76
2024/01/17 04:28:23;;;;;;;10.43;9.33;;;;;;;;;;2612789;54;20382;-77
2024/01/17 04:33:54;;;;;;;9.50;8.10;;;;;;;;;;2613450;54;20379;-76
2024/01/17 04:39:24;;;;;;;13.83;9.43;;;;;;;;;;2613068;54;20884;-76
2024/01/17 04:44:54;;;;;;;18.60;9.07;;;;;;;;;;2614195;54;20458;-79
2024/01/17 04:50:24;;;;;;;15.13;9.03;;;;;;;;;;2614899;54;20912;-79
2024/01/17 04:55:54;;;;;;;10.23;9.23;;;;;;;;;;2614852;54;20378;-79
2024/01/17 05:01:23;;;;;;;13.50;8.97;;;;;;;;;;2613891;54;20365;-77
2024/01/17 05:10:28;;;;;;;14.07;10.10;;;;;;;;;;2613796;54;20972;-77
2024/01/17 05:15:57;;;;;;;18.30;11.47;;;;;;;;;;2614656;54;20410;-77
2024/01/17 05:21:27;;;;;;;12.67;10.20;;;;;;;;;;2614100;54;20366;-78
2024/01/17 05:26:56;;;;;;;15.73;11.03;;;;;;;;;;2614103;54;20365;-78
2024/01/17 05:32:26;;;;;;;22.27;10.27;;;;;;;;;;2614135;54;20374;-80
2024/01/17 05:37:56;;;;;;;12.47;9.83;;;;;;;;;;2613133;54;20397;-80
2024/01/17 05:43:26;;;;;;;24.70;11.47;;;;;;;;;;2614716;54;20386;-80
2024/01/17 05:48:55;;;;;;;16.87;11.53;;;;;;;;;;2614720;54;20414;-81
2024/01/17 05:54:25;;;;;;;12.30;10.83;;;;;;;;;;2613829;39;20737;-80
2024/01/17 05:59:55;;;;;;;14.07;11.17;;;;;;;;;;2614400;54;20506;-80
2024/01/17 06:05:24;;;;;;;18.40;11.60;;;;;;;;;;2613965;54;20448;-81
2024/01/17 06:10:54;;;;;;;16.13;13.20;;;;;;;;;;2613636;54;20502;-81
2024/01/17 06:16:24;;;;;;;17.83;13.73;;;;;;;;;;2614374;54;20415;-77
2024/01/17 06:21:54;;;;;;;22.33;13.27;;;;;;;;;;2614355;54;20420;-77
2024/01/17 06:27:24;;;;;;;17.53;12.13;;;;;;;;;;2614290;54;20374;-77
2024/01/17 06:32:53;;;;;;;19.60;13.07;;;;;;;;;;2615317;54;20434;-78
2024/01/17 06:38:23;;;;;;;17.27;12.40;;;;;;;;;;2614261;54;20386;-78
2024/01/17 06:43:53;;;;;;;15.30;13.20;;;;;;;;;;2615103;54;20391;-78
2024/01/17 06:49:22;;;;;;;14.70;12.37;;;;;;;;;;2615198;54;20370;-79
2024/01/17 06:54:53;;;;;;;18.03;13.50;;;;;;;;;;2613537;54;20363;-79
2024/01/17 07:00:24;;;;;;;16.10;13.43;;;;;;;;;;2615555;39;20748;-79
2024/01/17 07:05:54;;;;;;;24.53;13.43;;;;;;;;;;2614667;54;20408;-78
2024/01/17 07:11:23;;;;;;;18.43;13.73;;;;;;;;;;2615137;54;20981;-79
2024/01/17 07:16:53;;;;;;;16.30;10.80;;;;;;;;;;2615381;54;20366;-79
2024/01/17 07:22:22;;;;;;;16.17;13.70;;;;;;;;;;2614604;54;20916;-79
2024/01/17 07:27:52;;;;;;;16.50;12.90;;;;;;;;;;2614012;54;20430;-78
2024/01/17 07:33:22;;;;;;;15.13;12.93;;;;;;;;;;2615068;54;20383;-78
2024/01/17 07:38:52;;;;;;;23.10;13.40;;;;;;;;;;2612590;54;20411;-78
2024/01/17 07:44:26;;;;;;;14.37;12.17;;;;;;;;;;2613283;54;20366;-78
2024/01/17 07:49:59;;;;;;;17.57;12.03;;;;;;;;;;2613741;54;20918;-78
2024/01/17 07:55:29;;;;;;;13.97;11.90;;;;;;;;;;2610102;54;20415;-79
2024/01/17 08:00:59;;;;;;;19.20;11.20;;;;;;;;;;2613007;54;20430;-79
2024/01/17 08:12:37;;;;;;;12.67;11.40;;;;;;;;;;2613435;54;20458;-78
2024/01/17 08:18:08;;;;;;;12.70;10.60;;;;;;;;;;2613709;39;20733;-78
2024/01/17 08:23:38;;;;;;;26.90;13.23;;;;;;;;;;2613248;54;20359;-78
2024/01/17 08:29:08;;;;;;;15.27;12.03;;;;;;;;;;2614059;39;20719;-77
2024/01/17 08:34:38;;;;;;;17.97;12.23;;;;;;;;;;2613586;54;20452;-79
2024/01/17 08:40:08;;;;;;;16.40;11.20;;;;;;;;;;2614494;54;20394;-77
2024/01/17 08:45:37;;;;;;;14.43;11.23;;;;;;;;;;2614636;54;20354;-79
2024/01/17 08:51:08;;;;;;;14.97;11.30;;;;;;;;;;2613173;46;20414;-81
2024/01/17 08:56:38;;;;;;;14.97;11.73;;;;;;;;;;2613410;54;20398;-79
2024/01/17 09:02:08;;;;;;;13.73;11.40;;;;;;;;;;2614556;54;20914;-79
2024/01/17 09:07:37;;;;;;;13.37;11.33;;;;;;;;;;2613875;54;20346;-79
2024/01/17 09:10:37;;;;;;;19.43;10.97;;;;;;;;;;2613279;47;20435;-80
2024/01/17 09:13:03;;;;;;;22.13;11.87;;;;;;;;;;2615306;39;21239;-78
2024/01/17 09:18:32;;;;;;;15.50;11.17;;;;;;;;;;2615630;54;20423;-78
2024/01/17 09:24:02;;;;;;;13.60;11.27;;;;;;;;;;2613006;54;20482;-77
2024/01/17 09:29:33;;;;;;;20.13;12.20;;;;;;;;;;2613508;54;20370;-78
2024/01/17 09:35:03;;;;;;;13.07;11.03;;;;;;;;;;2613638;54;20443;-79
2024/01/17 09:40:33;;;;;;;13.70;11.47;;;;;;;;;;2613580;54;20403;-78
2024/01/17 09:46:04;;;;;;;17.00;11.00;;;;;;;;;;2613712;54;20378;-79
2024/01/17 09:51:34;;;;;;;13.47;11.07;;;;;;;;;;2613512;54;20395;-78
2024/01/17 09:57:09;;;;;;;15.83;11.07;;;;;;;;;;2613992;54;20410;-78
2024/01/17 10:02:39;;;;;;;13.70;12.33;;;;;;;;;;2614654;54;20414;-78
2024/01/17 10:05:24;;;;;;;14.27;11.80;;;;;;;;;;2614340;47;20398;-78
2024/01/17 10:07:52;;;;;;;16.57;13.40;;;;;;;;;;2614598;54;20406;-78
2024/01/17 10:10:37;;;;;;;15.90;12.50;;;;;;;;;;2614652;54;20407;-78
2024/01/17 10:13:03;;;;;;;11.73;10.50;;;;;;;;;;2614722;54;20435;-78
2024/01/17 10:18:34;;;;;;;12.53;11.23;;;;;;;;;;2614610;54;20428;-77
2024/01/17 10:24:06;;;;;;;13.80;10.03;;;;;;;;;;2615446;54;20442;-78
2024/01/17 10:29:40;;;;;;;14.97;11.80;;;;;;;;;;2614869;54;20411;-77
2024/01/17 10:32:25;;;;;;;19.50;11.43;;;;;;;;;;2614707;54;20411;-77
2024/01/17 10:34:52;;;;;;;12.07;10.83;;;;;;;;;;2614363;46;20453;-76
2024/01/17 10:40:21;;;;;;;14.03;11.90;;;;;;;;;;2614677;54;20378;-76
2024/01/17 10:45:55;;;;;;;17.83;12.63;;;;;;;;;;2614293;54;20384;-76
2024/01/17 10:51:25;;;;;;;18.53;11.13;;;;;;;;;;2614525;54;20436;-77
2024/01/17 10:56:55;;;;;;;14.30;12.80;;;;;;;;;;2613436;54;20428;-77
2024/01/17 11:02:26;;;;;;;13.67;10.70;;;;;;;;;;2613526;54;20432;-79
2024/01/17 11:07:59;;;;;;;16.93;13.50;;;;;;;;;;2614272;54;20385;-77
2024/01/17 11:10:38;;;;;;;18.70;13.13;;;;;;;;;;2614096;54;20415;-78
2024/01/17 11:13:04;;;;;;;14.70;13.13;;;;;;;;;;2613952;54;20411;-78
2024/01/17 11:18:36;;;;;;;14.67;11.43;;;;;;;;;;2613061;54;20378;-78
2024/01/17 11:24:08;;;;;;;16.13;11.43;;;;;;;;;;2612559;54;20459;-77
2024/01/17 11:29:43;;;;;;;13.50;12.20;;;;;;;;;;2613456;54;20404;-78
2024/01/17 11:35:31;;;;;;;15.13;10.70;;;;;;;;;;2613582;54;20335;-77
2024/01/17 11:41:01;;;;;;;13.53;10.37;;;;;;;;;;2613083;54;20402;-77
2024/01/17 11:46:31;;;;;;;14.20;11.03;;;;;;;;;;2613994;54;20418;-77
2024/01/17 11:52:00;;;;;;;14.53;12.70;;;;;;;;;;2613761;54;20498;-78
2024/01/17 11:57:37;;;;;;;12.73;10.00;;;;;;;;;;2613035;54;20458;-78
2024/01/17 12:03:06;;;;;;;15.27;12.20;;;;;;;;;;2614553;39;20856;-76
2024/01/17 12:08:36;;;;;;;20.00;12.93;;;;;;;;;;2612358;54;20365;-76
2024/01/17 12:17:38;;;;;;;13.00;11.67;;;;;;;;;;2614215;54;20374;-76
2024/01/17 12:23:10;;;;;;;20.13;13.03;;;;;;;;;;2613115;54;20363;-77
2024/01/17 12:28:40;;;;;;;15.10;12.23;;;;;;;;;;2614242;54;20462;-78
2024/01/17 12:34:11;;;;;;;17.70;14.10;;;;;;;;;;2614442;54;20350;-77
2024/01/17 12:39:40;;;;;;;13.27;11.33;;;;;;;;;;2614750;54;20399;-77
2024/01/17 12:45:10;;;;;;;14.53;12.17;;;;;;;;;;2614611;54;20375;-77
2024/01/17 12:50:48;;;;;;;16.10;12.13;;;;;;;;;;2614128;54;20929;-77
2024/01/17 12:56:17;;;;;;;15.40;11.93;;;;;;;;;;2614429;54;20373;-78
2024/01/17 13:01:47;;;;;;;11.80;10.70;;;;;;;;;;2614105;54;21002;-75
2024/01/17 13:07:26;;;;;;;15.07;11.80;;;;;;;;;;2615218;39;20756;-77
2024/01/17 13:12:56;;;;;;;12.50;10.73;;;;;;;;;;2614491;54;20394;-75
2024/01/17 13:18:26;;;;;;;22.90;14.13;;;;;;;;;;2614636;54;20374;-76
2024/01/17 13:23:55;;;;;;;13.73;12.13;;;;;;;;;;2612940;54;20419;-74
2024/01/17 13:29:26;;;;;;;12.60;10.57;;;;;;;;;;2614050;54;20423;-74
2024/01/17 13:34:56;;;;;;;16.90;11.80;;;;;;;;;;2614363;54;20379;-73
2024/01/17 13:40:27;;;;;;;15.33;11.63;;;;;;;;;;2613882;54;20383;-74
2024/01/17 13:45:57;;;;;;;18.90;13.60;;;;;;;;;;2614169;54;20386;-73
2024/01/17 13:51:30;;;;;;;16.07;12.73;;;;;;;;;;2613475;54;20362;-74
2024/01/17 13:57:00;;;;;;;20.17;15.47;;;;;;;;;;2614061;54;20467;-73
2024/01/17 14:02:30;;;;;;;22.63;14.73;;;;;;;;;;2611421;54;20366;-74
2024/01/17 14:08:00;;;;;;;45.57;25.73;;;;;;;;;;2613721;54;20378;-78
2024/01/17 14:19:37;;;;;;;34.23;18.80;;;;;;;;;;2614294;54;20414;-77
2024/01/17 14:25:10;;;;;;;50.83;28.50;;;;;;;;;;2613270;54;20377;-75
2024/01/17 14:30:40;;;;;;;29.00;19.47;;;;;;;;;;2614079;54;20382;-78
2024/01/17 14:36:11;;;;;;;26.13;19.27;;;;;;;;;;2613878;54;20383;-77
2024/01/17 14:41:40;;;;;;;24.17;14.27;;;;;;;;;;2612474;54;20378;-78
2024/01/17 14:47:10;;;;;;;24.40;16.27;;;;;;;;;;2613232;54;20362;-79
2024/01/17 14:52:41;;;;;;;20.50;15.73;;;;;;;;;;2611593;54;20386;-79
2024/01/17 14:55:26;;;;;;;28.57;18.13;;;;;;;;;;2611267;39;20619;-78
2024/01/17 14:57:52;;;;;;;27.27;17.37;;;;;;;;;;2613294;54;20430;-78
2024/01/17 15:03:21;;;;;;;31.13;22.00;;;;;;;;;;2612386;39;20475;-78
2024/01/17 15:08:51;;;;;;;27.77;18.23;;;;;;;;;;2613578;54;20419;-78
2024/01/17 15:17:56;;;;;;;36.50;18.90;;;;;;;;;;2613099;54;20835;-78
2024/01/17 15:23:26;;;;;;;23.03;18.10;;;;;;;;;;2612381;54;20380;-78
2024/01/17 15:28:56;;;;;;;34.30;20.50;;;;;;;;;;2612548;54;20374;-79
2024/01/17 15:34:26;;;;;;;35.60;20.87;;;;;;;;;;2613505;54;20379;-78
2024/01/17 15:39:56;;;;;;;26.07;17.87;;;;;;;;;;2613659;54;20844;-78
2024/01/17 15:45:25;;;;;;;33.83;20.70;;;;;;;;;;2612390;54;20418;-78
2024/01/17 15:50:56;;;;;;;28.57;19.40;;;;;;;;;;2611464;54;20443;-77
2024/01/17 15:56:26;;;;;;;33.80;21.83;;;;;;;;;;2613594;54;20431;-78
2024/01/17 16:01:55;;;;;;;32.10;21.67;;;;;;;;;;2613638;39;20750;-76
2024/01/17 16:07:25;;;;;;;26.30;17.10;;;;;;;;;;2611401;39;20768;-78
2024/01/17 16:12:55;;;;;;;22.50;15.90;;;;;;;;;;2613309;54;20386;-79
2024/01/17 16:18:24;;;;;;;21.43;13.67;;;;;;;;;;2610259;54;20391;-79
2024/01/17 16:23:54;;;;;;;20.83;14.30;;;;;;;;;;2610695;54;20440;-79
2024/01/17 16:29:24;;;;;;;18.20;14.67;;;;;;;;;;2612802;54;20370;-78
2024/01/17 16:32:09;;;;;;;23.93;15.20;;;;;;;;;;2612240;54;20422;-78
2024/01/17 16:34:39;;;;;;;21.63;14.80;;;;;;;;;;2612423;39;20858;-79
2024/01/17 16:40:10;;;;;;;17.93;14.00;;;;;;;;;;2610039;54;20420;-77
2024/01/17 16:45:40;;;;;;;15.43;13.83;;;;;;;;;;2611901;54;20391;-75
2024/01/17 16:51:10;;;;;;;25.90;17.53;;;;;;;;;;2613169;54;20487;-75
2024/01/17 16:56:39;;;;;;;28.07;19.07;;;;;;;;;;2613275;54;20378;-76
2024/01/17 17:02:11;;;;;;;22.43;16.17;;;;;;;;;;2613167;39;21033;-77
2024/01/17 17:07:43;;;;;;;23.33;18.43;;;;;;;;;;2613266;54;20363;-79
2024/01/17 17:13:12;;;;;;;21.60;14.20;;;;;;;;;;2612365;54;20374;-78
2024/01/17 17:18:42;;;;;;;18.70;13.93;;;;;;;;;;2613609;54;20378;-78
2024/01/17 17:24:12;;;;;;;22.80;13.50;;;;;;;;;;2612862;54;20400;-79
2024/01/17 17:29:41;;;;;;;25.27;16.57;;;;;;;;;;2614266;39;20773;-78
2024/01/17 17:35:11;;;;;;;21.63;15.10;;;;;;;;;;2614337;54;20418;-80
2024/01/17 17:40:41;;;;;;;19.30;14.40;;;;;;;;;;2614160;54;20479;-77
2024/01/17 17:46:10;;;;;;;16.23;13.97;;;;;;;;;;2613149;54;20545;-78
2024/01/17 17:51:40;;;;;;;26.53;16.20;;;;;;;;;;2614247;54;20918;-78
2024/01/17 17:54:25;;;;;;;30.53;16.13;;;;;;;;;;2613300;54;20487;-78
2024/01/17 17:56:51;;;;;;;30.03;16.37;;;;;;;;;;2612410;39;20769;-77
2024/01/17 18:02:21;;;;;;;26.53;16.33;;;;;;;;;;2611379;54;20471;-77
2024/01/17 18:07:52;;;;;;;25.60;18.97;;;;;;;;;;2613052;54;20419;-78
2024/01/17 18:13:21;;;;;;;37.87;20.40;;;;;;;;;;2613178;39;21173;-77
2024/01/17 18:18:54;;;;;;;37.23;22.57;;;;;;;;;;2614766;54;20419;-77
2024/01/17 18:24:24;;;;;;;28.20;17.57;;;;;;;;;;2614902;54;20331;-77
2024/01/17 18:29:55;;;;;;;37.13;21.93;;;;;;;;;;2614163;54;20508;-78
2024/01/17 18:35:25;;;;;;;39.97;23.83;;;;;;;;;;2612666;54;20386;-78
2024/01/17 18:40:54;;;;;;;35.00;19.03;;;;;;;;;;2612843;54;20411;-76
2024/01/17 18:46:24;;;;;;;35.40;23.00;;;;;;;;;;2613801;54;20366;-78
2024/01/17 18:51:53;;;;;;;22.30;16.40;;;;;;;;;;2611831;54;20391;-77
2024/01/17 18:57:23;;;;;;;29.33;17.60;;;;;;;;;;2614166;54;20383;-79
2024/01/17 19:02:53;;;;;;;29.83;18.60;;;;;;;;;;2614617;54;20497;-78
2024/01/17 19:08:22;;;;;;;27.03;15.97;;;;;;;;;;2614067;54;21227;-78
2024/01/17 19:19:59;;;;;;;22.57;15.83;;;;;;;;;;2613663;54;20370;-78
2024/01/17 19:25:29;;;;;;;26.10;17.67;;;;;;;;;;2612533;54;20349;-81
2024/01/17 19:30:58;;;;;;;26.60;18.10;;;;;;;;;;2614316;31;20865;-79
2024/01/17 19:36:29;;;;;;;30.27;18.13;;;;;;;;;;2612942;54;20370;-77
2024/01/17 19:42:01;;;;;;;27.43;19.17;;;;;;;;;;2613831;39;20785;-81
2024/01/17 19:47:31;;;;;;;28.33;20.60;;;;;;;;;;2613075;54;20375;-78
2024/01/17 19:53:02;;;;;;;32.87;21.83;;;;;;;;;;2612974;54;20387;-78
2024/01/17 19:58:32;;;;;;;35.70;21.17;;;;;;;;;;2613377;54;20366;-80
2024/01/17 20:04:02;;;;;;;45.93;24.30;;;;;;;;;;2612999;54;20342;-81
2024/01/17 20:09:32;;;;;;;41.43;23.40;;;;;;;;;;2613300;54;20425;-79
2024/01/17 20:18:42;;;;;;;31.57;19.83;;;;;;;;;;2612929;54;20519;-77
2024/01/17 20:24:12;;;;;;;29.77;22.30;;;;;;;;;;2612805;54;20411;-79
2024/01/17 20:29:42;;;;;;;34.30;21.63;;;;;;;;;;2613565;54;20403;-78
2024/01/17 20:35:12;;;;;;;37.57;22.57;;;;;;;;;;2613295;54;20367;-79
2024/01/17 20:40:41;;;;;;;36.27;21.00;;;;;;;;;;2613706;54;20374;-78
2024/01/17 20:46:12;;;;;;;27.03;20.20;;;;;;;;;;2613382;54;20383;-77
2024/01/17 20:51:42;;;;;;;30.67;22.33;;;;;;;;;;2612212;39;21008;-76
2024/01/17 20:57:12;;;;;;;33.90;22.40;;;;;;;;;;2613294;54;20411;-78
2024/01/17 21:02:41;;;;;;;30.43;20.80;;;;;;;;;;2612152;54;20459;-77
2024/01/17 21:08:11;;;;;;;33.10;23.93;;;;;;;;;;2613124;54;21321;-78
2024/01/17 21:13:41;;;;;;;31.63;21.30;;;;;;;;;;2613809;39;20707;-78
2024/01/17 21:19:11;;;;;;;29.87;19.93;;;;;;;;;;2612703;54;21409;-78
2024/01/17 21:24:44;;;;;;;34.03;21.13;;;;;;;;;;2613695;54;20354;-78
2024/01/17 21:30:14;;;;;;;33.33;22.90;;;;;;;;;;2614057;54;20394;-77
2024/01/17 21:35:43;;;;;;;29.00;21.13;;;;;;;;;;2614329;54;20399;-78
2024/01/17 21:41:13;;;;;;;23.13;17.70;;;;;;;;;;2614040;54;21326;-78
2024/01/17 21:46:43;;;;;;;31.60;21.33;;;;;;;;;;2613448;54;20390;-78
2024/01/17 21:52:12;;;;;;;24.30;17.70;;;;;;;;;;2613974;54;21063;-78
2024/01/17 21:57:44;;;;;;;29.47;17.93;;;;;;;;;;2614950;54;20397;-79
2024/01/17 22:03:13;;;;;;;28.80;19.53;;;;;;;;;;2613883;54;20383;-78
2024/01/17 22:08:43;;;;;;;22.77;16.70;;;;;;;;;;2616553;54;20379;-78
2024/01/17 22:14:13;;;;;;;25.30;17.73;;;;;;;;;;2616022;54;21048;-79
2024/01/17 22:19:43;;;;;;;29.73;19.13;;;;;;;;;;2616212;54;20432;-79
2024/01/17 22:25:12;;;;;;;29.43;20.23;;;;;;;;;;2616553;54;20410;-78
2024/01/17 22:30:42;;;;;;;27.83;18.97;;;;;;;;;;2615982;54;20390;-78
2024/01/17 22:36:24;;;;;;;27.63;17.80;;;;;;;;;;2615217;54;20416;-77
2024/01/17 22:39:13;;;;;;;25.27;17.73;;;;;;;;;;2613474;54;20418;-76
2024/01/17 22:41:43;;;;;;;28.33;17.50;;;;;;;;;;2614304;54;20421;-77
2024/01/17 22:47:13;;;;;;;29.43;18.53;;;;;;;;;;2615189;39;20744;-78
2024/01/17 22:52:43;;;;;;;29.87;17.17;;;;;;;;;;2614083;39;20768;-77
2024/01/17 22:58:13;;;;;;;23.10;16.80;;;;;;;;;;2614671;54;20395;-76
2024/01/17 23:03:44;;;;;;;23.27;16.90;;;;;;;;;;2616414;54;20411;-78
2024/01/17 23:09:13;;;;;;;28.53;18.20;;;;;;;;;;2615620;54;20354;-79
2024/01/17 23:14:43;;;;;;;25.47;17.70;;;;;;;;;;2615394;54;20379;-79
2024/01/17 23:23:47;;;;;;;27.63;18.30;;;;;;;;;;2614713;54;20416;-78
2024/01/17 23:29:17;;;;;;;31.97;19.07;;;;;;;;;;2614043;54;20387;-79
2024/01/17 23:34:46;;;;;;;29.33;15.40;;;;;;;;;;2613888;39;21025;-78
2024/01/17 23:40:16;;;;;;;19.10;16.63;;;;;;;;;;2612404;54;20346;-77
2024/01/17 23:45:46;;;;;;;25.90;17.70;;;;;;;;;;2614154;47;20876;-77
2024/01/17 23:51:16;;;;;;;25.03;17.00;;;;;;;;;;2613731;54;20400;-76
2024/01/17 23:56:45;;;;;;;23.00;16.67;;;;;;;;;;2613775;39;20805;-75
